sensor_id;sensor_type;location;lat;lon;timestamp;P1;durP1;ratioP1;P2;durP2;ratioP2
43994;SDS011;51687;52.160;5.298;2022-11-06T00:01:57;7.50;;;4.93;;
43994;SDS011;51687;52.160;5.298;2022-11-06T00:04:27;10.52;;;4.97;;
43994;SDS011;51687;52.160;5.298;2022-11-06T00:06:54;7.72;;;4.65;;
43994;SDS011;51687;52.160;5.298;2022-11-06T00:09:21;9.40;;;5.32;;
43994;SDS011;51687;52.160;5.298;2022-11-06T00:11:48;9.73;;;4.72;;
43994;SDS011;51687;52.160;5.298;2022-11-06T00:14:16;7.32;;;4.68;;
43994;SDS011;51687;52.160;5.298;2022-11-06T00:16:44;6.95;;;4.82;;
43994;SDS011;51687;52.160;5.298;2022-11-06T00:19:11;6.72;;;5.28;;
43994;SDS011;51687;52.160;5.298;2022-11-06T00:21:39;7.05;;;3.88;;
43994;SDS011;51687;52.160;5.298;2022-11-06T00:24:06;7.85;;;3.92;;
43994;SDS011;51687;52.160;5.298;2022-11-06T00:26:34;7.95;;;4.70;;
43994;SDS011;51687;52.160;5.298;2022-11-06T00:29:01;9.00;;;4.53;;
43994;SDS011;51687;52.160;5.298;2022-11-06T00:31:30;6.78;;;4.30;;
43994;SDS011;51687;52.160;5.298;2022-11-06T00:34:00;7.85;;;4.03;;
43994;SDS011;51687;52.160;5.298;2022-11-06T00:36:28;11.77;;;4.63;;
43994;SDS011;51687;52.160;5.298;2022-11-06T00:38:56;7.38;;;4.55;;
43994;SDS011;51687;52.160;5.298;2022-11-06T00:41:24;11.48;;;5.22;;
43994;SDS011;51687;52.160;5.298;2022-11-06T00:43:52;7.27;;;4.10;;
43994;SDS011;51687;52.160;5.298;2022-11-06T00:46:21;7.70;;;4.50;;
43994;SDS011;51687;52.160;5.298;2022-11-06T00:48:48;7.82;;;4.93;;
43994;SDS011;51687;52.160;5.298;2022-11-06T00:51:16;7.95;;;4.80;;
43994;SDS011;51687;52.160;5.298;2022-11-06T00:53:51;12.35;;;4.75;;
43994;SDS011;51687;52.160;5.298;2022-11-06T00:56:20;10.65;;;4.93;;
43994;SDS011;51687;52.160;5.298;2022-11-06T00:58:48;6.97;;;4.55;;
43994;SDS011;51687;52.160;5.298;2022-11-06T01:01:28;8.52;;;4.65;;
43994;SDS011;51687;52.160;5.298;2022-11-06T01:03:57;9.73;;;4.90;;
43994;SDS011;51687;52.160;5.298;2022-11-06T01:06:27;9.38;;;5.15;;
43994;SDS011;51687;52.160;5.298;2022-11-06T01:08:56;10.20;;;5.00;;
43994;SDS011;51687;52.160;5.298;2022-11-06T01:11:24;9.80;;;4.78;;
43994;SDS011;51687;52.160;5.298;2022-11-06T01:14:22;9.32;;;4.32;;
43994;SDS011;51687;52.160;5.298;2022-11-06T01:16:49;7.57;;;4.82;;
43994;SDS011;51687;52.160;5.298;2022-11-06T01:19:17;8.75;;;4.10;;
43994;SDS011;51687;52.160;5.298;2022-11-06T01:21:47;9.18;;;4.40;;
43994;SDS011;51687;52.160;5.298;2022-11-06T01:24:16;7.25;;;4.35;;
43994;SDS011;51687;52.160;5.298;2022-11-06T01:26:48;11.02;;;4.57;;
43994;SDS011;51687;52.160;5.298;2022-11-06T01:29:35;6.23;;;4.50;;
43994;SDS011;51687;52.160;5.298;2022-11-06T01:32:02;9.02;;;4.47;;
43994;SDS011;51687;52.160;5.298;2022-11-06T01:34:29;10.38;;;4.70;;
43994;SDS011;51687;52.160;5.298;2022-11-06T01:36:56;11.32;;;4.57;;
43994;SDS011;51687;52.160;5.298;2022-11-06T01:39:23;7.25;;;4.70;;
43994;SDS011;51687;52.160;5.298;2022-11-06T01:41:50;7.35;;;4.57;;
43994;SDS011;51687;52.160;5.298;2022-11-06T01:50:04;9.18;;;4.38;;
43994;SDS011;51687;52.160;5.298;2022-11-06T01:52:33;7.57;;;4.35;;
43994;SDS011;51687;52.160;5.298;2022-11-06T01:55:06;7.57;;;4.20;;
43994;SDS011;51687;52.160;5.298;2022-11-06T01:57:37;9.98;;;5.25;;
43994;SDS011;51687;52.160;5.298;2022-11-06T02:00:05;6.75;;;4.20;;
43994;SDS011;51687;52.160;5.298;2022-11-06T02:02:32;7.63;;;4.15;;
43994;SDS011;51687;52.160;5.298;2022-11-06T02:05:00;10.50;;;4.22;;
43994;SDS011;51687;52.160;5.298;2022-11-06T02:07:27;11.27;;;4.45;;
43994;SDS011;51687;52.160;5.298;2022-11-06T02:09:54;10.27;;;4.07;;
43994;SDS011;51687;52.160;5.298;2022-11-06T02:20:52;11.63;;;4.60;;
43994;SDS011;51687;52.160;5.298;2022-11-06T02:29:30;9.43;;;3.92;;
43994;SDS011;51687;52.160;5.298;2022-11-06T02:34:31;11.73;;;3.42;;
43994;SDS011;51687;52.160;5.298;2022-11-06T02:37:04;9.10;;;3.95;;
43994;SDS011;51687;52.160;5.298;2022-11-06T02:39:37;9.80;;;3.72;;
43994;SDS011;51687;52.160;5.298;2022-11-06T02:42:06;5.85;;;3.95;;
43994;SDS011;51687;52.160;5.298;2022-11-06T02:44:36;7.10;;;3.85;;
43994;SDS011;51687;52.160;5.298;2022-11-06T02:47:06;6.10;;;3.55;;
43994;SDS011;51687;52.160;5.298;2022-11-06T02:52:07;10.50;;;4.30;;
43994;SDS011;51687;52.160;5.298;2022-11-06T02:54:48;8.55;;;3.70;;
43994;SDS011;51687;52.160;5.298;2022-11-06T02:57:21;15.27;;;4.45;;
43994;SDS011;51687;52.160;5.298;2022-11-06T03:00:02;11.00;;;3.72;;
43994;SDS011;51687;52.160;5.298;2022-11-06T03:02:32;10.60;;;4.88;;
43994;SDS011;51687;52.160;5.298;2022-11-06T03:05:10;8.75;;;3.60;;
43994;SDS011;51687;52.160;5.298;2022-11-06T03:07:53;9.57;;;3.70;;
43994;SDS011;51687;52.160;5.298;2022-11-06T03:11:11;8.10;;;3.80;;
43994;SDS011;51687;52.160;5.298;2022-11-06T03:13:31;8.23;;;3.22;;
43994;SDS011;51687;52.160;5.298;2022-11-06T03:16:22;10.52;;;4.07;;
43994;SDS011;51687;52.160;5.298;2022-11-06T03:18:54;8.50;;;3.50;;
43994;SDS011;51687;52.160;5.298;2022-11-06T03:24:28;10.70;;;3.22;;
43994;SDS011;51687;52.160;5.298;2022-11-06T03:27:01;7.45;;;3.20;;
43994;SDS011;51687;52.160;5.298;2022-11-06T03:29:38;9.43;;;4.35;;
43994;SDS011;51687;52.160;5.298;2022-11-06T03:34:43;8.45;;;3.72;;
43994;SDS011;51687;52.160;5.298;2022-11-06T03:37:29;6.63;;;3.38;;
43994;SDS011;51687;52.160;5.298;2022-11-06T03:40:05;7.80;;;3.33;;
43994;SDS011;51687;52.160;5.298;2022-11-06T03:42:36;9.93;;;3.40;;
43994;SDS011;51687;52.160;5.298;2022-11-06T03:45:08;8.40;;;3.10;;
43994;SDS011;51687;52.160;5.298;2022-11-06T03:47:41;9.27;;;3.28;;
43994;SDS011;51687;52.160;5.298;2022-11-06T03:50:23;7.60;;;3.35;;
43994;SDS011;51687;52.160;5.298;2022-11-06T03:52:58;7.68;;;2.80;;
43994;SDS011;51687;52.160;5.298;2022-11-06T03:55:31;10.02;;;3.25;;
43994;SDS011;51687;52.160;5.298;2022-11-06T03:58:09;7.77;;;2.80;;
43994;SDS011;51687;52.160;5.298;2022-11-06T04:00:41;9.45;;;2.75;;
43994;SDS011;51687;52.160;5.298;2022-11-06T04:05:57;9.75;;;3.20;;
43994;SDS011;51687;52.160;5.298;2022-11-06T04:08:50;4.95;;;3.17;;
43994;SDS011;51687;52.160;5.298;2022-11-06T04:11:37;8.10;;;3.03;;
43994;SDS011;51687;52.160;5.298;2022-11-06T04:14:25;7.90;;;2.58;;
43994;SDS011;51687;52.160;5.298;2022-11-06T04:16:57;7.20;;;3.47;;
43994;SDS011;51687;52.160;5.298;2022-11-06T04:19:28;13.55;;;3.00;;
43994;SDS011;51687;52.160;5.298;2022-11-06T04:39:12;6.50;;;3.00;;
43994;SDS011;51687;52.160;5.298;2022-11-06T04:42:17;9.90;;;3.22;;
43994;SDS011;51687;52.160;5.298;2022-11-06T04:44:47;7.50;;;3.10;;
43994;SDS011;51687;52.160;5.298;2022-11-06T04:47:18;9.05;;;3.40;;
43994;SDS011;51687;52.160;5.298;2022-11-06T04:49:47;6.10;;;2.72;;
43994;SDS011;51687;52.160;5.298;2022-11-06T04:52:18;6.05;;;2.83;;
43994;SDS011;51687;52.160;5.298;2022-11-06T04:54:49;7.32;;;2.13;;
43994;SDS011;51687;52.160;5.298;2022-11-06T04:57:22;6.05;;;2.33;;
43994;SDS011;51687;52.160;5.298;2022-11-06T04:59:49;6.40;;;2.80;;
43994;SDS011;51687;52.160;5.298;2022-11-06T05:02:17;8.30;;;2.83;;
43994;SDS011;51687;52.160;5.298;2022-11-06T05:04:44;8.77;;;2.80;;
43994;SDS011;51687;52.160;5.298;2022-11-06T05:07:11;9.25;;;3.03;;
43994;SDS011;51687;52.160;5.298;2022-11-06T05:09:39;8.18;;;2.25;;
43994;SDS011;51687;52.160;5.298;2022-11-06T05:12:06;8.57;;;3.30;;
43994;SDS011;51687;52.160;5.298;2022-11-06T05:14:33;12.57;;;3.00;;
43994;SDS011;51687;52.160;5.298;2022-11-06T05:17:00;12.38;;;2.60;;
43994;SDS011;51687;52.160;5.298;2022-11-06T05:19:26;7.85;;;2.45;;
43994;SDS011;51687;52.160;5.298;2022-11-06T05:21:53;5.85;;;2.33;;
43994;SDS011;51687;52.160;5.298;2022-11-06T05:24:39;7.10;;;2.55;;
43994;SDS011;51687;52.160;5.298;2022-11-06T05:27:05;9.27;;;2.63;;
43994;SDS011;51687;52.160;5.298;2022-11-06T05:29:32;7.80;;;2.47;;
43994;SDS011;51687;52.160;5.298;2022-11-06T05:31:59;6.93;;;3.38;;
43994;SDS011;51687;52.160;5.298;2022-11-06T05:34:26;8.00;;;2.88;;
43994;SDS011;51687;52.160;5.298;2022-11-06T05:36:52;8.02;;;3.38;;
43994;SDS011;51687;52.160;5.298;2022-11-06T05:39:19;8.25;;;2.58;;
43994;SDS011;51687;52.160;5.298;2022-11-06T05:41:46;8.63;;;2.88;;
43994;SDS011;51687;52.160;5.298;2022-11-06T05:44:13;5.85;;;2.55;;
43994;SDS011;51687;52.160;5.298;2022-11-06T05:46:39;15.90;;;2.47;;
43994;SDS011;51687;52.160;5.298;2022-11-06T05:49:15;7.15;;;2.70;;
43994;SDS011;51687;52.160;5.298;2022-11-06T05:51:43;8.25;;;2.78;;
43994;SDS011;51687;52.160;5.298;2022-11-06T05:54:10;8.75;;;2.60;;
43994;SDS011;51687;52.160;5.298;2022-11-06T05:56:37;8.57;;;2.67;;
43994;SDS011;51687;52.160;5.298;2022-11-06T05:59:04;9.38;;;2.72;;
43994;SDS011;51687;52.160;5.298;2022-11-06T06:01:30;6.70;;;2.38;;
43994;SDS011;51687;52.160;5.298;2022-11-06T06:03:57;5.78;;;2.00;;
43994;SDS011;51687;52.160;5.298;2022-11-06T06:06:24;5.28;;;2.20;;
43994;SDS011;51687;52.160;5.298;2022-11-06T06:08:51;5.18;;;2.50;;
43994;SDS011;51687;52.160;5.298;2022-11-06T06:11:18;5.88;;;2.50;;
43994;SDS011;51687;52.160;5.298;2022-11-06T06:13:45;6.93;;;2.45;;
43994;SDS011;51687;52.160;5.298;2022-11-06T06:16:13;5.78;;;2.40;;
43994;SDS011;51687;52.160;5.298;2022-11-06T06:18:40;6.47;;;2.50;;
43994;SDS011;51687;52.160;5.298;2022-11-06T06:21:07;10.35;;;2.55;;
43994;SDS011;51687;52.160;5.298;2022-11-06T06:23:34;7.53;;;2.13;;
43994;SDS011;51687;52.160;5.298;2022-11-06T06:26:01;8.23;;;2.38;;
43994;SDS011;51687;52.160;5.298;2022-11-06T06:28:27;4.70;;;1.90;;
43994;SDS011;51687;52.160;5.298;2022-11-06T06:30:54;9.40;;;2.40;;
43994;SDS011;51687;52.160;5.298;2022-11-06T06:33:26;8.52;;;2.60;;
43994;SDS011;51687;52.160;5.298;2022-11-06T06:35:53;5.28;;;2.38;;
43994;SDS011;51687;52.160;5.298;2022-11-06T06:38:20;6.68;;;2.45;;
43994;SDS011;51687;52.160;5.298;2022-11-06T06:40:47;6.65;;;2.92;;
43994;SDS011;51687;52.160;5.298;2022-11-06T06:43:13;5.93;;;2.10;;
43994;SDS011;51687;52.160;5.298;2022-11-06T06:45:40;5.85;;;2.55;;
43994;SDS011;51687;52.160;5.298;2022-11-06T06:48:07;5.35;;;2.40;;
43994;SDS011;51687;52.160;5.298;2022-11-06T06:50:34;7.45;;;2.25;;
43994;SDS011;51687;52.160;5.298;2022-11-06T06:53:01;5.43;;;2.53;;
43994;SDS011;51687;52.160;5.298;2022-11-06T06:55:28;6.70;;;2.50;;
43994;SDS011;51687;52.160;5.298;2022-11-06T06:57:59;6.82;;;2.45;;
43994;SDS011;51687;52.160;5.298;2022-11-06T07:00:27;7.40;;;2.35;;
43994;SDS011;51687;52.160;5.298;2022-11-06T07:02:54;8.43;;;2.75;;
43994;SDS011;51687;52.160;5.298;2022-11-06T07:05:21;6.90;;;2.65;;
43994;SDS011;51687;52.160;5.298;2022-11-06T07:07:48;5.82;;;2.65;;
43994;SDS011;51687;52.160;5.298;2022-11-06T07:10:15;5.78;;;2.75;;
43994;SDS011;51687;52.160;5.298;2022-11-06T07:12:42;6.30;;;3.22;;
43994;SDS011;51687;52.160;5.298;2022-11-06T07:15:09;7.03;;;2.85;;
43994;SDS011;51687;52.160;5.298;2022-11-06T07:17:36;6.90;;;2.67;;
43994;SDS011;51687;52.160;5.298;2022-11-06T07:20:03;6.32;;;2.17;;
43994;SDS011;51687;52.160;5.298;2022-11-06T07:22:30;5.05;;;2.30;;
43994;SDS011;51687;52.160;5.298;2022-11-06T07:25:03;7.85;;;2.88;;
43994;SDS011;51687;52.160;5.298;2022-11-06T07:27:31;5.72;;;2.45;;
43994;SDS011;51687;52.160;5.298;2022-11-06T07:29:59;5.88;;;2.55;;
43994;SDS011;51687;52.160;5.298;2022-11-06T07:32:25;6.03;;;2.65;;
43994;SDS011;51687;52.160;5.298;2022-11-06T07:34:52;5.57;;;2.35;;
43994;SDS011;51687;52.160;5.298;2022-11-06T07:37:19;5.03;;;2.42;;
43994;SDS011;51687;52.160;5.298;2022-11-06T07:39:47;5.13;;;2.35;;
43994;SDS011;51687;52.160;5.298;2022-11-06T07:42:13;4.53;;;2.20;;
43994;SDS011;51687;52.160;5.298;2022-11-06T07:44:40;5.65;;;2.40;;
43994;SDS011;51687;52.160;5.298;2022-11-06T07:47:07;7.32;;;2.15;;
43994;SDS011;51687;52.160;5.298;2022-11-06T07:49:33;5.63;;;2.20;;
43994;SDS011;51687;52.160;5.298;2022-11-06T07:52:00;9.00;;;2.75;;
43994;SDS011;51687;52.160;5.298;2022-11-06T07:54:27;8.15;;;2.92;;
43994;SDS011;51687;52.160;5.298;2022-11-06T07:56:54;5.28;;;2.53;;
43994;SDS011;51687;52.160;5.298;2022-11-06T07:59:20;5.68;;;2.42;;
43994;SDS011;51687;52.160;5.298;2022-11-06T08:01:47;6.57;;;2.42;;
43994;SDS011;51687;52.160;5.298;2022-11-06T08:04:14;6.22;;;2.40;;
43994;SDS011;51687;52.160;5.298;2022-11-06T08:06:42;4.13;;;2.00;;
43994;SDS011;51687;52.160;5.298;2022-11-06T08:09:09;4.80;;;2.75;;
43994;SDS011;51687;52.160;5.298;2022-11-06T08:11:38;7.22;;;2.10;;
43994;SDS011;51687;52.160;5.298;2022-11-06T08:14:05;5.65;;;2.10;;
43994;SDS011;51687;52.160;5.298;2022-11-06T08:16:32;8.73;;;2.78;;
43994;SDS011;51687;52.160;5.298;2022-11-06T08:18:59;6.82;;;1.98;;
43994;SDS011;51687;52.160;5.298;2022-11-06T08:21:25;5.80;;;2.08;;
43994;SDS011;51687;52.160;5.298;2022-11-06T08:23:52;5.47;;;2.22;;
43994;SDS011;51687;52.160;5.298;2022-11-06T08:26:19;6.10;;;2.40;;
43994;SDS011;51687;52.160;5.298;2022-11-06T08:28:46;6.35;;;2.30;;
43994;SDS011;51687;52.160;5.298;2022-11-06T08:31:14;6.15;;;2.10;;
43994;SDS011;51687;52.160;5.298;2022-11-06T08:33:41;8.45;;;2.33;;
43994;SDS011;51687;52.160;5.298;2022-11-06T08:36:08;6.65;;;2.35;;
43994;SDS011;51687;52.160;5.298;2022-11-06T08:38:35;3.67;;;1.65;;
43994;SDS011;51687;52.160;5.298;2022-11-06T08:41:06;6.80;;;2.67;;
43994;SDS011;51687;52.160;5.298;2022-11-06T08:43:35;8.60;;;2.30;;
43994;SDS011;51687;52.160;5.298;2022-11-06T08:46:03;6.00;;;2.35;;
43994;SDS011;51687;52.160;5.298;2022-11-06T08:48:31;4.10;;;1.70;;
43994;SDS011;51687;52.160;5.298;2022-11-06T08:50:58;7.65;;;2.40;;
43994;SDS011;51687;52.160;5.298;2022-11-06T08:53:25;4.57;;;1.85;;
43994;SDS011;51687;52.160;5.298;2022-11-06T08:55:51;6.03;;;1.98;;
43994;SDS011;51687;52.160;5.298;2022-11-06T08:58:18;4.30;;;1.92;;
43994;SDS011;51687;52.160;5.298;2022-11-06T09:00:45;11.98;;;2.10;;
43994;SDS011;51687;52.160;5.298;2022-11-06T09:03:13;10.57;;;2.10;;
43994;SDS011;51687;52.160;5.298;2022-11-06T09:05:43;5.05;;;2.40;;
43994;SDS011;51687;52.160;5.298;2022-11-06T09:08:10;3.63;;;1.63;;
43994;SDS011;51687;52.160;5.298;2022-11-06T09:10:38;7.07;;;1.85;;
43994;SDS011;51687;52.160;5.298;2022-11-06T09:13:07;6.85;;;1.85;;
43994;SDS011;51687;52.160;5.298;2022-11-06T09:15:35;6.20;;;2.03;;
43994;SDS011;51687;52.160;5.298;2022-11-06T09:18:02;6.82;;;1.83;;
43994;SDS011;51687;52.160;5.298;2022-11-06T09:20:29;5.45;;;2.30;;
43994;SDS011;51687;52.160;5.298;2022-11-06T09:23:00;5.18;;;2.17;;
43994;SDS011;51687;52.160;5.298;2022-11-06T09:25:29;3.58;;;1.88;;
43994;SDS011;51687;52.160;5.298;2022-11-06T09:27:56;8.65;;;2.60;;
43994;SDS011;51687;52.160;5.298;2022-11-06T09:30:25;3.30;;;1.90;;
43994;SDS011;51687;52.160;5.298;2022-11-06T09:32:58;5.30;;;1.75;;
43994;SDS011;51687;52.160;5.298;2022-11-06T09:35:26;6.38;;;1.88;;
43994;SDS011;51687;52.160;5.298;2022-11-06T09:37:58;4.72;;;1.67;;
43994;SDS011;51687;52.160;5.298;2022-11-06T09:40:38;4.38;;;1.60;;
43994;SDS011;51687;52.160;5.298;2022-11-06T09:46:19;4.82;;;1.40;;
43994;SDS011;51687;52.160;5.298;2022-11-06T09:48:56;6.50;;;1.90;;
43994;SDS011;51687;52.160;5.298;2022-11-06T09:54:16;4.57;;;1.45;;
43994;SDS011;51687;52.160;5.298;2022-11-06T09:57:09;5.63;;;1.98;;
43994;SDS011;51687;52.160;5.298;2022-11-06T09:59:41;7.10;;;2.03;;
43994;SDS011;51687;52.160;5.298;2022-11-06T10:02:31;11.38;;;2.13;;
43994;SDS011;51687;52.160;5.298;2022-11-06T10:07:48;3.72;;;1.33;;
43994;SDS011;51687;52.160;5.298;2022-11-06T10:10:17;11.18;;;1.98;;
43994;SDS011;51687;52.160;5.298;2022-11-06T10:15:26;4.95;;;1.60;;
43994;SDS011;51687;52.160;5.298;2022-11-06T10:20:44;2.63;;;1.33;;
43994;SDS011;51687;52.160;5.298;2022-11-06T10:23:38;5.30;;;1.40;;
43994;SDS011;51687;52.160;5.298;2022-11-06T10:26:12;7.20;;;1.80;;
43994;SDS011;51687;52.160;5.298;2022-11-06T10:28:48;4.60;;;1.67;;
43994;SDS011;51687;52.160;5.298;2022-11-06T10:34:20;5.05;;;1.70;;
43994;SDS011;51687;52.160;5.298;2022-11-06T10:36:51;5.55;;;1.65;;
43994;SDS011;51687;52.160;5.298;2022-11-06T10:39:26;5.25;;;1.33;;
43994;SDS011;51687;52.160;5.298;2022-11-06T10:42:00;4.07;;;1.13;;
43994;SDS011;51687;52.160;5.298;2022-11-06T10:44:35;5.72;;;1.73;;
43994;SDS011;51687;52.160;5.298;2022-11-06T10:47:18;5.07;;;1.40;;
43994;SDS011;51687;52.160;5.298;2022-11-06T10:49:47;5.07;;;1.40;;
43994;SDS011;51687;52.160;5.298;2022-11-06T10:58:09;5.05;;;1.20;;
43994;SDS011;51687;52.160;5.298;2022-11-06T11:00:40;4.03;;;1.33;;
43994;SDS011;51687;52.160;5.298;2022-11-06T11:03:50;4.53;;;1.52;;
43994;SDS011;51687;52.160;5.298;2022-11-06T11:05:59;7.13;;;1.48;;
43994;SDS011;51687;52.160;5.298;2022-11-06T11:11:14;5.07;;;1.50;;
43994;SDS011;51687;52.160;5.298;2022-11-06T11:16:25;5.93;;;1.55;;
43994;SDS011;51687;52.160;5.298;2022-11-06T11:18:54;2.65;;;1.30;;
43994;SDS011;51687;52.160;5.298;2022-11-06T11:21:59;4.38;;;1.52;;
43994;SDS011;51687;52.160;5.298;2022-11-06T11:24:30;5.22;;;1.40;;
43994;SDS011;51687;52.160;5.298;2022-11-06T11:26:58;8.30;;;1.83;;
43994;SDS011;51687;52.160;5.298;2022-11-06T11:29:43;4.32;;;1.33;;
43994;SDS011;51687;52.160;5.298;2022-11-06T11:32:13;3.20;;;1.48;;
43994;SDS011;51687;52.160;5.298;2022-11-06T11:34:46;4.68;;;1.30;;
43994;SDS011;51687;52.160;5.298;2022-11-06T11:37:25;5.03;;;1.73;;
43994;SDS011;51687;52.160;5.298;2022-11-06T11:42:44;3.03;;;1.70;;
43994;SDS011;51687;52.160;5.298;2022-11-06T11:45:12;4.95;;;1.58;;
43994;SDS011;51687;52.160;5.298;2022-11-06T11:47:46;5.00;;;1.40;;
43994;SDS011;51687;52.160;5.298;2022-11-06T11:50:26;6.40;;;1.63;;
43994;SDS011;51687;52.160;5.298;2022-11-06T11:55:51;4.30;;;1.38;;
43994;SDS011;51687;52.160;5.298;2022-11-06T12:00:52;5.05;;;1.70;;
43994;SDS011;51687;52.160;5.298;2022-11-06T12:03:19;7.07;;;1.48;;
43994;SDS011;51687;52.160;5.298;2022-11-06T12:05:48;2.95;;;1.40;;
43994;SDS011;51687;52.160;5.298;2022-11-06T12:08:24;5.93;;;1.60;;
43994;SDS011;51687;52.160;5.298;2022-11-06T12:10:51;4.85;;;1.50;;
43994;SDS011;51687;52.160;5.298;2022-11-06T12:13:18;8.07;;;1.65;;
43994;SDS011;51687;52.160;5.298;2022-11-06T12:15:54;6.50;;;1.85;;
43994;SDS011;51687;52.160;5.298;2022-11-06T12:18:41;4.07;;;1.10;;
43994;SDS011;51687;52.160;5.298;2022-11-06T12:21:28;6.70;;;1.55;;
43994;SDS011;51687;52.160;5.298;2022-11-06T12:26:40;6.97;;;1.50;;
43994;SDS011;51687;52.160;5.298;2022-11-06T12:29:14;7.25;;;1.50;;
43994;SDS011;51687;52.160;5.298;2022-11-06T12:31:55;5.47;;;1.52;;
43994;SDS011;51687;52.160;5.298;2022-11-06T12:34:39;2.65;;;1.20;;
43994;SDS011;51687;52.160;5.298;2022-11-06T12:42:58;4.63;;;1.40;;
43994;SDS011;51687;52.160;5.298;2022-11-06T12:51:18;2.55;;;1.27;;
43994;SDS011;51687;52.160;5.298;2022-11-06T12:54:18;7.68;;;1.40;;
43994;SDS011;51687;52.160;5.298;2022-11-06T13:02:34;6.55;;;1.45;;
43994;SDS011;51687;52.160;5.298;2022-11-06T13:05:22;6.68;;;2.05;;
43994;SDS011;51687;52.160;5.298;2022-11-06T13:14:34;4.03;;;1.63;;
43994;SDS011;51687;52.160;5.298;2022-11-06T13:19:47;4.15;;;1.40;;
43994;SDS011;51687;52.160;5.298;2022-11-06T13:30:41;3.90;;;1.40;;
43994;SDS011;51687;52.160;5.298;2022-11-06T13:35:36;6.72;;;1.70;;
43994;SDS011;51687;52.160;5.298;2022-11-06T13:38:07;4.43;;;1.63;;
43994;SDS011;51687;52.160;5.298;2022-11-06T13:40:41;7.10;;;1.50;;
43994;SDS011;51687;52.160;5.298;2022-11-06T13:45:52;4.15;;;1.48;;
43994;SDS011;51687;52.160;5.298;2022-11-06T13:51:23;5.72;;;1.70;;
43994;SDS011;51687;52.160;5.298;2022-11-06T13:54:18;4.88;;;1.77;;
43994;SDS011;51687;52.160;5.298;2022-11-06T13:56:58;3.47;;;1.27;;
43994;SDS011;51687;52.160;5.298;2022-11-06T14:07:56;4.30;;;1.77;;
43994;SDS011;51687;52.160;5.298;2022-11-06T14:10:35;5.85;;;1.60;;
43994;SDS011;51687;52.160;5.298;2022-11-06T14:13:04;8.05;;;1.65;;
43994;SDS011;51687;52.160;5.298;2022-11-06T14:17:59;7.32;;;1.83;;
43994;SDS011;51687;52.160;5.298;2022-11-06T14:23:31;6.40;;;1.55;;
43994;SDS011;51687;52.160;5.298;2022-11-06T14:26:02;6.25;;;1.70;;
43994;SDS011;51687;52.160;5.298;2022-11-06T14:28:38;6.55;;;1.80;;
43994;SDS011;51687;52.160;5.298;2022-11-06T14:31:07;5.22;;;1.50;;
43994;SDS011;51687;52.160;5.298;2022-11-06T14:36:13;7.25;;;2.13;;
43994;SDS011;51687;52.160;5.298;2022-11-06T14:38:52;8.20;;;1.80;;
43994;SDS011;51687;52.160;5.298;2022-11-06T14:46:38;10.13;;;2.13;;
43994;SDS011;51687;52.160;5.298;2022-11-06T14:49:19;4.82;;;1.88;;
43994;SDS011;51687;52.160;5.298;2022-11-06T14:51:58;3.58;;;1.50;;
43994;SDS011;51687;52.160;5.298;2022-11-06T14:54:28;7.28;;;1.60;;
43994;SDS011;51687;52.160;5.298;2022-11-06T14:56:55;7.03;;;2.95;;
43994;SDS011;51687;52.160;5.298;2022-11-06T15:04:36;6.57;;;1.80;;
43994;SDS011;51687;52.160;5.298;2022-11-06T15:07:25;3.72;;;1.70;;
43994;SDS011;51687;52.160;5.298;2022-11-06T15:15:44;5.50;;;1.85;;
43994;SDS011;51687;52.160;5.298;2022-11-06T15:18:16;7.30;;;4.60;;
43994;SDS011;51687;52.160;5.298;2022-11-06T15:20:49;4.30;;;1.60;;
43994;SDS011;51687;52.160;5.298;2022-11-06T15:26:14;4.97;;;2.22;;
43994;SDS011;51687;52.160;5.298;2022-11-06T15:31:26;6.80;;;2.28;;
43994;SDS011;51687;52.160;5.298;2022-11-06T15:34:15;5.18;;;1.80;;
43994;SDS011;51687;52.160;5.298;2022-11-06T15:42:01;5.30;;;2.40;;
43994;SDS011;51687;52.160;5.298;2022-11-06T15:44:31;5.88;;;1.70;;
43994;SDS011;51687;52.160;5.298;2022-11-06T15:47:03;3.50;;;1.65;;
43994;SDS011;51687;52.160;5.298;2022-11-06T15:49:30;4.47;;;1.70;;
43994;SDS011;51687;52.160;5.298;2022-11-06T15:52:00;7.63;;;2.00;;
43994;SDS011;51687;52.160;5.298;2022-11-06T15:54:40;4.72;;;1.67;;
43994;SDS011;51687;52.160;5.298;2022-11-06T15:57:19;3.53;;;1.95;;
43994;SDS011;51687;52.160;5.298;2022-11-06T15:59:49;7.00;;;1.23;;
43994;SDS011;51687;52.160;5.298;2022-11-06T16:02:18;4.65;;;2.20;;
43994;SDS011;51687;52.160;5.298;2022-11-06T16:04:48;6.20;;;1.70;;
43994;SDS011;51687;52.160;5.298;2022-11-06T16:07:16;5.32;;;1.70;;
43994;SDS011;51687;52.160;5.298;2022-11-06T16:09:44;2.70;;;1.60;;
43994;SDS011;51687;52.160;5.298;2022-11-06T16:12:13;3.90;;;2.00;;
43994;SDS011;51687;52.160;5.298;2022-11-06T16:14:42;2.03;;;1.35;;
43994;SDS011;51687;52.160;5.298;2022-11-06T16:17:17;4.70;;;1.30;;
43994;SDS011;51687;52.160;5.298;2022-11-06T16:19:49;4.40;;;1.52;;
43994;SDS011;51687;52.160;5.298;2022-11-06T16:22:21;7.47;;;1.50;;
43994;SDS011;51687;52.160;5.298;2022-11-06T16:24:57;3.70;;;1.75;;
43994;SDS011;51687;52.160;5.298;2022-11-06T16:27:33;3.65;;;1.55;;
43994;SDS011;51687;52.160;5.298;2022-11-06T16:30:05;4.88;;;1.80;;
43994;SDS011;51687;52.160;5.298;2022-11-06T16:32:37;7.32;;;1.65;;
43994;SDS011;51687;52.160;5.298;2022-11-06T16:37:55;4.10;;;1.73;;
43994;SDS011;51687;52.160;5.298;2022-11-06T16:40:49;2.50;;;1.80;;
43994;SDS011;51687;52.160;5.298;2022-11-06T16:43:18;5.43;;;2.80;;
43994;SDS011;51687;52.160;5.298;2022-11-06T16:45:50;3.75;;;2.50;;
43994;SDS011;51687;52.160;5.298;2022-11-06T16:48:25;3.85;;;1.67;;
43994;SDS011;51687;52.160;5.298;2022-11-06T16:51:02;3.30;;;1.58;;
43994;SDS011;51687;52.160;5.298;2022-11-06T16:53:56;4.60;;;1.50;;
43994;SDS011;51687;52.160;5.298;2022-11-06T16:56:39;4.55;;;1.85;;
43994;SDS011;51687;52.160;5.298;2022-11-06T16:59:07;3.90;;;1.98;;
43994;SDS011;51687;52.160;5.298;2022-11-06T17:01:42;2.60;;;1.48;;
43994;SDS011;51687;52.160;5.298;2022-11-06T17:04:18;4.07;;;1.50;;
43994;SDS011;51687;52.160;5.298;2022-11-06T17:06:46;3.88;;;1.55;;
43994;SDS011;51687;52.160;5.298;2022-11-06T17:09:31;2.65;;;1.75;;
43994;SDS011;51687;52.160;5.298;2022-11-06T17:12:00;4.07;;;1.33;;
43994;SDS011;51687;52.160;5.298;2022-11-06T17:14:27;4.30;;;1.50;;
43994;SDS011;51687;52.160;5.298;2022-11-06T17:16:56;2.35;;;1.48;;
43994;SDS011;51687;52.160;5.298;2022-11-06T17:19:25;3.20;;;1.85;;
43994;SDS011;51687;52.160;5.298;2022-11-06T17:21:53;3.03;;;1.77;;
43994;SDS011;51687;52.160;5.298;2022-11-06T17:24:20;3.15;;;1.80;;
43994;SDS011;51687;52.160;5.298;2022-11-06T17:27:03;2.33;;;1.55;;
43994;SDS011;51687;52.160;5.298;2022-11-06T17:29:31;2.63;;;1.48;;
43994;SDS011;51687;52.160;5.298;2022-11-06T17:31:59;2.65;;;1.33;;
43994;SDS011;51687;52.160;5.298;2022-11-06T17:34:26;3.33;;;1.90;;
43994;SDS011;51687;52.160;5.298;2022-11-06T17:36:53;5.95;;;1.92;;
43994;SDS011;51687;52.160;5.298;2022-11-06T17:39:20;3.47;;;1.70;;
43994;SDS011;51687;52.160;5.298;2022-11-06T17:41:47;2.67;;;1.60;;
43994;SDS011;51687;52.160;5.298;2022-11-06T17:44:14;2.78;;;1.77;;
43994;SDS011;51687;52.160;5.298;2022-11-06T17:46:42;2.80;;;1.48;;
43994;SDS011;51687;52.160;5.298;2022-11-06T17:49:11;4.65;;;1.92;;
43994;SDS011;51687;52.160;5.298;2022-11-06T17:51:43;3.80;;;1.75;;
43994;SDS011;51687;52.160;5.298;2022-11-06T17:54:27;3.38;;;1.95;;
43994;SDS011;51687;52.160;5.298;2022-11-06T17:56:59;4.60;;;1.95;;
43994;SDS011;51687;52.160;5.298;2022-11-06T17:59:29;3.28;;;2.00;;
43994;SDS011;51687;52.160;5.298;2022-11-06T18:01:57;2.35;;;1.90;;
43994;SDS011;51687;52.160;5.298;2022-11-06T18:04:25;4.15;;;2.30;;
43994;SDS011;51687;52.160;5.298;2022-11-06T18:06:53;2.80;;;1.83;;
43994;SDS011;51687;52.160;5.298;2022-11-06T18:09:20;2.08;;;1.85;;
43994;SDS011;51687;52.160;5.298;2022-11-06T18:11:51;2.58;;;2.03;;